Tienen, Belgium
Current Conditions -  °F | °C
As of 9:25 PM on Tuesday 21 Oct 2014 (Local Time) from EBBE Reporting Station
Scattered Clouds Scattered Clouds  
Wind Chill:   Ceiling: Unl
Heat Index:   Visibility: 6mi
Dew Point:   Wind: 15mph
Humidity: 81%   Direction: 250°WSW
Pressure: 29.83"   Gusts: NA
Location:  50.81°N, 4.94°E
Report Text: EBBE 211925Z 25013KT 9999 FEW030 SCT070 08/05 Q1010 BLU BLU TEMPO WHT
Loading
Personal Weather Stations






























Interactive Weather Map
Tropical Storm Tracking
New forecast layout! Learn more

10-Day Weather Forecast

Advertisements
Track Severe Weather on mobile